EGXW METAR and TAF | Updated Today

EGXW METAR

RAF Waddington

Observation time: 38 min. ago

EGXW 251950Z AUTO 27009KT 9999 NCD 16/08 Q1012

Need help? Read our tutorial on how to read METARs or read the parsed version below.

RAF Waddington (EGXW) METAR

  • Weather conditions on Wed, 25 May 2022 19:50:00 +0000 (38 min. ago):
  • Present conditions: Dry
  • Clouds: Nil cloud detected
  • Visibility: Greater than 10 km
  • Wind: 270 degrees at 9 knots
  • Temperature: 16 celsius
  • Dew point: 8 celsius
  • Pressure: 1012 millibars
  • Remarks: None


Useful to know...

EGXW TAF

RAF Waddington

TAF EGXW 251636Z 2518/2612 27012KT 9999 FEW035
Observation time: 3:52 hr. ago
Need help? Read our tutorial on how to read TAFs or read the parsed version below.

Parsed version of TAF for RAF Waddington (EGXW)

  • From 25 May at 18:00 UTC, to day 26 of the month at 12:00 UTC
  • Clouds: A few at 1067 meters
  • Visibility: Greater than 10 km
  • Wind: 270 degrees at 12